createdAt,value
2017-11-14T00:02:23.350Z,65.60
2017-11-14T00:04:50.785Z,61.70
2017-11-14T00:07:18.381Z,79.87
2017-11-14T00:09:45.805Z,83.70
2017-11-14T00:12:13.234Z,83.07
2017-11-14T00:14:40.677Z,78.70
2017-11-14T00:17:08.101Z,73.60
2017-11-14T00:19:35.534Z,74.32
2017-11-14T00:22:02.977Z,85.10
2017-11-14T00:24:30.423Z,89.97
2017-11-14T00:26:57.844Z,76.55
2017-11-14T00:29:25.294Z,85.55
2017-11-14T00:31:52.720Z,96.47
2017-11-14T00:34:20.145Z,76.70
2017-11-14T00:36:47.598Z,86.90
2017-11-14T00:39:15.022Z,75.97
2017-11-14T00:41:42.470Z,77.37
2017-11-14T00:44:09.898Z,72.87
2017-11-14T00:46:37.334Z,90.00
2017-11-14T00:49:04.790Z,78.90
2017-11-14T00:51:32.218Z,68.78
2017-11-14T00:53:59.648Z,69.68
2017-11-14T00:56:27.085Z,74.47
2017-11-14T00:58:54.513Z,68.90
2017-11-14T01:01:21.941Z,79.37
2017-11-14T01:03:49.403Z,78.78
2017-11-14T01:06:16.833Z,65.47
2017-11-14T01:08:44.256Z,65.82
2017-11-14T01:11:11.698Z,89.18
2017-11-14T01:13:39.133Z,84.53
2017-11-14T01:16:06.653Z,70.90
2017-11-14T01:18:34.105Z,85.30
2017-11-14T01:21:01.571Z,80.80
2017-11-14T01:23:28.996Z,73.43
2017-11-14T01:25:56.417Z,81.63
2017-11-14T01:28:23.862Z,74.87
2017-11-14T01:30:51.286Z,69.90
2017-11-14T01:33:18.720Z,78.00
2017-11-14T01:35:46.165Z,69.93
2017-11-14T01:38:13.593Z,81.87
2017-11-14T01:40:41.017Z,83.12
2017-11-14T01:43:08.482Z,81.57
2017-11-14T01:45:36.017Z,73.47
2017-11-14T01:48:03.482Z,76.00
2017-11-14T01:50:30.927Z,69.28
2017-11-14T01:52:58.348Z,83.00
2017-11-14T01:55:25.773Z,67.72
2017-11-14T01:57:53.222Z,58.05
2017-11-14T02:00:32.513Z,62.25
2017-11-14T02:02:59.952Z,64.78
2017-11-14T02:05:27.377Z,76.05
2017-11-14T02:07:54.798Z,59.75
2017-11-14T02:10:22.315Z,75.87
2017-11-14T02:12:49.744Z,64.28
2017-11-14T02:15:17.184Z,61.45
2017-11-14T02:17:44.609Z,80.22
2017-11-14T02:20:12.041Z,97.00
2017-11-14T02:22:39.505Z,69.78
2017-11-14T02:25:06.938Z,71.47
2017-11-14T02:27:34.356Z,77.95
2017-11-14T02:30:01.808Z,72.30
2017-11-14T02:32:29.233Z,78.25
2017-11-14T02:34:56.666Z,75.72
2017-11-14T02:37:24.102Z,71.35
2017-11-14T02:39:51.529Z,53.63
2017-11-14T02:42:18.973Z,68.55
2017-11-14T02:44:46.404Z,63.42
2017-11-14T02:47:13.827Z,67.05
2017-11-14T02:49:41.246Z,74.53
2017-11-14T02:52:08.680Z,66.57
2017-11-14T02:54:36.108Z,60.00
2017-11-14T02:57:03.533Z,62.17
2017-11-14T02:59:30.975Z,53.75
2017-11-14T03:01:58.410Z,63.42
2017-11-14T03:04:25.834Z,66.07
2017-11-14T03:06:53.286Z,68.87
2017-11-14T03:09:20.705Z,68.68
2017-11-14T03:11:48.134Z,59.67
2017-11-14T03:14:15.602Z,59.47
2017-11-14T03:16:43.031Z,55.30
2017-11-14T03:19:10.455Z,77.47
2017-11-14T03:21:37.894Z,64.15
2017-11-14T03:24:05.317Z,69.78
2017-11-14T03:26:32.741Z,79.80
2017-11-14T03:29:00.187Z,69.32
2017-11-14T03:31:27.616Z,76.35
2017-11-14T03:33:55.041Z,64.65
2017-11-14T03:36:22.482Z,66.30
2017-11-14T03:38:49.906Z,52.47
2017-11-14T03:41:17.337Z,68.50
2017-11-14T03:43:44.782Z,82.10
2017-11-14T03:46:12.206Z,67.32
2017-11-14T03:48:39.630Z,54.80
2017-11-14T03:51:07.073Z,51.22
2017-11-14T03:53:34.498Z,53.03
2017-11-14T03:56:01.918Z,57.17
2017-11-14T03:58:29.371Z,54.08
2017-11-14T04:00:56.797Z,69.00
2017-11-14T04:03:24.229Z,68.80
2017-11-14T04:05:51.669Z,70.43
2017-11-14T04:08:19.098Z,68.22
2017-11-14T04:10:46.525Z,54.17
2017-11-14T04:13:13.985Z,75.65
2017-11-14T04:15:41.398Z,76.90
2017-11-14T04:18:08.826Z,70.25
2017-11-14T04:20:36.271Z,66.80
2017-11-14T04:23:03.694Z,69.03
2017-11-14T04:25:31.121Z,68.30
2017-11-14T04:27:58.595Z,73.22
2017-11-14T04:30:26.016Z,74.35
2017-11-14T04:32:53.433Z,74.45
2017-11-14T04:35:20.878Z,68.53
2017-11-14T04:37:48.297Z,62.45
2017-11-14T04:40:15.725Z,69.05
2017-11-14T04:42:43.166Z,62.53
2017-11-14T04:45:10.592Z,67.40
2017-11-14T04:47:38.016Z,68.85
2017-11-14T04:50:05.475Z,69.57
2017-11-14T04:52:32.898Z,63.65
2017-11-14T04:55:00.325Z,72.50
2017-11-14T04:57:27.765Z,68.53
2017-11-14T04:59:55.194Z,70.78
2017-11-14T05:02:22.613Z,68.50
2017-11-14T05:04:50.061Z,60.72
2017-11-14T05:07:17.498Z,62.60
2017-11-14T05:09:44.922Z,65.53
2017-11-14T05:12:12.362Z,62.95
2017-11-14T05:14:39.842Z,63.90
2017-11-14T05:17:07.266Z,57.13
2017-11-14T05:19:34.702Z,52.97
2017-11-14T05:22:02.086Z,66.35
2017-11-14T05:24:29.550Z,63.50
2017-11-14T05:26:56.990Z,64.78
2017-11-14T05:29:24.413Z,64.95
2017-11-14T05:31:51.837Z,65.35
2017-11-14T05:34:19.282Z,71.20
2017-11-14T05:36:46.710Z,67.75
2017-11-14T05:39:14.135Z,74.45
2017-11-14T05:41:41.577Z,67.47
2017-11-14T05:44:09.001Z,68.65
2017-11-14T05:46:36.432Z,70.60
2017-11-14T05:49:03.879Z,67.10
2017-11-14T05:51:31.300Z,70.55
2017-11-14T05:53:58.729Z,67.28
2017-11-14T05:56:26.178Z,62.30
2017-11-14T05:58:53.603Z,68.25
2017-11-14T06:01:21.027Z,69.30
2017-11-14T06:03:48.466Z,67.15
2017-11-14T06:06:15.885Z,57.10
2017-11-14T06:08:43.319Z,70.18
2017-11-14T06:11:10.766Z,59.83
2017-11-14T06:13:38.189Z,58.28
2017-11-14T06:16:05.613Z,60.97
2017-11-14T06:18:33.048Z,64.43
2017-11-14T06:21:00.470Z,51.92
2017-11-14T06:23:27.910Z,63.60
2017-11-14T06:25:55.360Z,41.95
2017-11-14T06:28:22.781Z,48.05
2017-11-14T06:30:50.214Z,44.35
2017-11-14T06:33:17.653Z,42.13
2017-11-14T06:35:45.075Z,46.55
2017-11-14T06:38:12.503Z,41.13
2017-11-14T06:40:39.946Z,43.42
2017-11-14T06:43:07.373Z,48.42
2017-11-14T06:45:34.797Z,45.95
2017-11-14T06:48:02.250Z,46.78
2017-11-14T06:50:29.675Z,46.97
2017-11-14T06:52:57.109Z,44.00
2017-11-14T06:55:24.546Z,60.47
2017-11-14T06:57:51.975Z,45.55
2017-11-14T07:00:19.398Z,46.63
2017-11-14T07:02:46.837Z,46.40
2017-11-14T07:05:14.257Z,55.28
2017-11-14T07:07:41.689Z,50.28
2017-11-14T07:10:09.129Z,54.20
2017-11-14T07:12:36.554Z,52.72
2017-11-14T07:15:03.982Z,50.85
2017-11-14T07:17:31.412Z,50.28
2017-11-14T07:19:58.845Z,39.95
2017-11-14T07:22:26.291Z,46.30
2017-11-14T07:24:53.731Z,39.58
2017-11-14T07:27:21.149Z,46.78
2017-11-14T07:29:48.593Z,45.40
2017-11-14T07:32:16.024Z,42.00
2017-11-14T07:34:43.445Z,47.53
2017-11-14T07:37:10.894Z,40.22
2017-11-14T07:39:38.330Z,61.63
2017-11-14T07:42:05.769Z,58.15
2017-11-14T07:44:33.198Z,50.88
2017-11-14T07:47:00.628Z,37.67
2017-11-14T07:49:28.066Z,43.97
2017-11-14T07:51:55.511Z,32.03
2017-11-14T07:54:22.930Z,48.95
2017-11-14T07:56:50.357Z,41.63
2017-11-14T07:59:17.803Z,35.20
2017-11-14T08:01:45.244Z,44.10
2017-11-14T08:04:12.686Z,34.30
2017-11-14T08:06:40.105Z,41.97
2017-11-14T08:09:07.549Z,37.30
2017-11-14T08:11:34.979Z,41.03
2017-11-14T08:14:02.410Z,40.78
2017-11-14T08:16:29.849Z,46.10
2017-11-14T08:18:57.278Z,43.05
2017-11-14T08:21:24.706Z,33.13
2017-11-14T08:23:52.147Z,47.20
2017-11-14T08:26:19.566Z,39.53
2017-11-14T08:28:46.987Z,35.00
2017-11-14T08:31:14.433Z,41.20
2017-11-14T08:33:41.858Z,50.80
2017-11-14T08:36:09.303Z,38.45
2017-11-14T08:38:36.753Z,47.72
2017-11-14T08:41:04.168Z,39.97
2017-11-14T08:43:31.603Z,49.17
2017-11-14T08:45:59.046Z,50.75
2017-11-14T08:48:26.474Z,56.63
2017-11-14T08:50:53.911Z,51.08
2017-11-14T08:53:21.353Z,53.70
2017-11-14T08:55:48.778Z,62.58
2017-11-14T08:58:16.211Z,64.95
2017-11-14T09:00:43.653Z,63.72
2017-11-14T09:03:11.085Z,60.60
2017-11-14T09:05:38.518Z,67.72
2017-11-14T09:08:05.971Z,55.30
2017-11-14T09:10:33.399Z,57.30
2017-11-14T09:13:00.821Z,57.03
2017-11-14T09:15:28.278Z,46.95
2017-11-14T09:17:55.705Z,54.42
2017-11-14T09:20:23.134Z,44.28
2017-11-14T09:22:50.618Z,53.17
2017-11-14T09:25:18.051Z,44.05
2017-11-14T09:27:45.486Z,42.22
2017-11-14T09:30:12.931Z,46.45
2017-11-14T09:32:40.348Z,39.40
2017-11-14T09:35:07.778Z,47.35
2017-11-14T09:37:35.226Z,41.63
2017-11-14T09:40:02.744Z,41.63
2017-11-14T09:42:30.162Z,46.78
2017-11-14T09:44:57.569Z,45.97
2017-11-14T09:47:25.038Z,56.22
2017-11-14T09:49:52.552Z,53.00
2017-11-14T09:52:20.004Z,51.15
2017-11-14T09:54:47.425Z,52.30
2017-11-14T09:57:14.854Z,46.17
2017-11-14T09:59:42.303Z,43.38
2017-11-14T10:02:09.734Z,56.50
2017-11-14T10:04:37.157Z,45.55
2017-11-14T10:07:04.598Z,46.13
2017-11-14T10:09:32.022Z,45.25
2017-11-14T10:11:59.458Z,48.78
2017-11-14T10:14:26.914Z,42.22
2017-11-14T10:16:54.354Z,50.47
2017-11-14T10:19:21.797Z,48.42
2017-11-14T10:21:49.228Z,61.60
2017-11-14T10:21:52.972Z,4.2
2017-11-14T10:24:16.668Z,62.28
2017-11-14T10:25:21.293Z,4.2
2017-11-14T10:26:44.116Z,57.67
2017-11-14T10:29:14.436Z,64.87
2017-11-14T10:31:41.879Z,59.97
2017-11-14T10:34:09.325Z,56.45
2017-11-14T10:36:36.758Z,63.83
2017-11-14T10:39:04.198Z,55.33
2017-11-14T10:41:31.738Z,49.28
2017-11-14T10:43:59.161Z,49.83
2017-11-14T10:46:26.593Z,62.25
2017-11-14T10:48:54.032Z,50.83
2017-11-14T10:51:21.456Z,49.38
2017-11-14T10:53:48.899Z,59.97
2017-11-14T10:56:16.346Z,55.78
2017-11-14T10:58:43.774Z,54.60
2017-11-14T11:01:11.203Z,56.03
2017-11-14T11:03:38.649Z,57.58
2017-11-14T11:06:06.069Z,47.62
2017-11-14T11:08:33.511Z,39.20
2017-11-14T11:11:00.971Z,45.30
2017-11-14T11:13:28.403Z,44.88
2017-11-14T11:15:55.838Z,50.20
2017-11-14T11:18:23.273Z,49.30
2017-11-14T11:20:50.702Z,51.55
2017-11-14T11:23:18.129Z,49.88
2017-11-14T11:25:45.575Z,52.53
2017-11-14T11:28:12.997Z,43.95
2017-11-14T11:30:40.430Z,42.85
2017-11-14T11:33:07.865Z,46.37
2017-11-14T11:35:35.301Z,52.70
2017-11-14T11:38:02.731Z,47.05
2017-11-14T11:40:30.197Z,58.20
2017-11-14T11:42:57.671Z,56.95
2017-11-14T11:45:25.141Z,54.13
2017-11-14T11:47:52.578Z,48.22
2017-11-14T11:50:20.017Z,57.67
2017-11-14T11:52:47.468Z,48.75
2017-11-14T11:55:14.907Z,42.35
2017-11-14T11:57:42.328Z,46.75
2017-11-14T12:00:09.766Z,48.53
2017-11-14T12:02:37.200Z,51.08
2017-11-14T12:05:04.623Z,44.78
2017-11-14T12:07:32.071Z,52.92
2017-11-14T12:09:59.494Z,51.97
2017-11-14T12:12:26.926Z,55.85
2017-11-14T12:14:54.373Z,45.67
2017-11-14T12:17:21.802Z,55.20
2017-11-14T12:19:49.227Z,53.85
2017-11-14T12:22:16.677Z,55.55
2017-11-14T12:24:44.101Z,42.62
2017-11-14T12:27:11.525Z,39.78
2017-11-14T12:29:38.978Z,41.92
2017-11-14T12:32:06.407Z,61.65
2017-11-14T12:34:33.838Z,42.30
2017-11-14T12:37:01.282Z,40.22
2017-11-14T12:39:28.705Z,45.08
2017-11-14T12:41:56.146Z,41.40
2017-11-14T12:44:23.594Z,39.80
2017-11-14T12:46:51.046Z,46.40
2017-11-14T12:49:18.474Z,38.72
2017-11-14T12:51:45.914Z,35.15
2017-11-14T12:54:13.370Z,39.03
2017-11-14T12:56:40.805Z,38.67
2017-11-14T12:59:08.237Z,38.42
2017-11-14T13:01:35.686Z,37.85
2017-11-14T13:04:03.125Z,45.92
2017-11-14T13:06:30.565Z,54.05
2017-11-14T13:07:06.974Z,4.2
2017-11-14T13:07:10.324Z,4.2
2017-11-14T13:08:57.989Z,36.00
2017-11-14T13:11:25.413Z,37.60
2017-11-14T13:13:13.688Z,4.2
2017-11-14T13:13:41.627Z,4.2
2017-11-14T13:13:52.850Z,45.12
2017-11-14T13:16:20.286Z,43.03
2017-11-14T13:18:47.729Z,43.63
2017-11-14T13:21:15.156Z,38.10
2017-11-14T13:23:42.603Z,46.50
2017-11-14T13:26:10.074Z,33.25
2017-11-14T13:28:37.481Z,42.00
2017-11-14T13:31:04.935Z,34.88
2017-11-14T13:33:32.377Z,47.55
2017-11-14T13:35:59.806Z,36.58
2017-11-14T13:38:27.246Z,38.90
2017-11-14T13:40:54.675Z,35.25
2017-11-14T13:43:22.121Z,35.55
2017-11-14T13:45:49.546Z,39.88
2017-11-14T13:48:16.973Z,35.20
2017-11-14T13:50:44.423Z,36.55
2017-11-14T13:53:11.867Z,37.70
2017-11-14T13:55:39.290Z,41.47
2017-11-14T13:58:06.754Z,37.78
2017-11-14T14:00:34.205Z,39.92
2017-11-14T14:03:01.631Z,35.10
2017-11-14T14:05:29.079Z,37.33
2017-11-14T14:07:56.510Z,45.72
2017-11-14T14:10:23.936Z,50.45
2017-11-14T14:12:51.377Z,42.40
2017-11-14T14:15:18.810Z,45.33
2017-11-14T14:17:46.242Z,37.92
2017-11-14T14:20:13.709Z,41.17
2017-11-14T14:22:41.157Z,41.33
2017-11-14T14:25:08.583Z,38.10
2017-11-14T14:27:36.026Z,49.72
2017-11-14T14:30:03.499Z,46.47
2017-11-14T14:32:30.925Z,43.83
2017-11-14T14:34:58.371Z,43.22
2017-11-14T14:37:25.799Z,47.72
2017-11-14T14:39:53.228Z,48.55
2017-11-14T14:42:20.673Z,35.90
2017-11-14T14:44:48.118Z,40.53
2017-11-14T14:47:15.534Z,47.75
2017-11-14T14:49:42.991Z,42.85
2017-11-14T14:52:10.422Z,51.47
2017-11-14T14:54:37.858Z,53.47
2017-11-14T14:57:05.306Z,43.47
2017-11-14T14:59:32.744Z,41.45
2017-11-14T15:02:00.165Z,42.67
2017-11-14T15:04:27.616Z,48.05
2017-11-14T15:06:55.051Z,47.83
2017-11-14T15:09:22.483Z,50.85
2017-11-14T15:11:49.921Z,45.33
2017-11-14T15:14:17.351Z,48.25
2017-11-14T15:16:44.773Z,48.30
2017-11-14T15:19:12.218Z,52.50
2017-11-14T15:21:39.654Z,46.75
2017-11-14T15:24:07.073Z,39.78
2017-11-14T15:26:34.592Z,49.15
2017-11-14T15:29:02.020Z,46.30
2017-11-14T15:31:29.474Z,53.20
2017-11-14T15:33:56.897Z,50.10
2017-11-14T15:36:24.324Z,59.28
2017-11-14T15:38:51.775Z,55.83
2017-11-14T15:41:19.202Z,51.28
2017-11-14T15:43:46.633Z,57.53
2017-11-14T15:46:14.070Z,64.50
2017-11-14T15:48:41.494Z,63.25
2017-11-14T15:51:08.970Z,54.22
2017-11-14T15:53:36.416Z,55.88
2017-11-14T15:56:03.854Z,55.88
2017-11-14T15:58:31.286Z,58.17
2017-11-14T16:00:58.728Z,53.55
2017-11-14T16:03:26.150Z,61.50
2017-11-14T16:05:53.577Z,66.12
2017-11-14T16:08:21.042Z,57.80
2017-11-14T16:10:48.486Z,66.60
2017-11-14T16:13:15.925Z,69.37
2017-11-14T16:15:43.354Z,65.93
2017-11-14T16:18:10.798Z,63.70
2017-11-14T16:20:38.222Z,81.07
2017-11-14T16:23:05.645Z,79.35
2017-11-14T16:25:33.090Z,68.95
2017-11-14T16:28:00.518Z,67.62
2017-11-14T16:30:27.949Z,67.85
2017-11-14T16:32:55.394Z,76.00
2017-11-14T16:35:22.830Z,100.90
2017-11-14T16:37:50.262Z,64.12
2017-11-14T16:40:17.710Z,93.65
2017-11-14T16:42:45.134Z,67.72
2017-11-14T16:45:12.558Z,73.97
2017-11-14T16:47:40.002Z,75.15
2017-11-14T16:50:07.429Z,82.20
2017-11-14T16:52:34.863Z,65.12
2017-11-14T16:55:02.306Z,69.87
2017-11-14T16:57:29.981Z,67.32
2017-11-14T16:59:57.425Z,58.92
2017-11-14T17:02:24.866Z,72.65
2017-11-14T17:04:52.354Z,80.43
2017-11-14T17:07:19.776Z,77.05
2017-11-14T17:09:47.217Z,63.78
2017-11-14T17:12:14.642Z,67.28
2017-11-14T17:14:42.067Z,71.20
2017-11-14T17:17:09.522Z,68.35
2017-11-14T17:19:36.957Z,78.60
2017-11-14T17:22:04.382Z,72.68
2017-11-14T17:24:31.822Z,73.18
2017-11-14T17:26:59.245Z,79.72
2017-11-14T17:29:26.684Z,85.65
2017-11-14T17:31:58.914Z,85.12
2017-11-14T17:34:26.351Z,83.60
2017-11-14T17:36:53.804Z,65.53
2017-11-14T17:39:21.263Z,79.12
2017-11-14T17:41:48.710Z,74.05
2017-11-14T17:44:16.139Z,72.75
2017-11-14T17:46:43.598Z,78.50
2017-11-14T17:49:11.022Z,75.10
2017-11-14T17:51:38.475Z,87.35
2017-11-14T17:54:05.919Z,68.93
2017-11-14T17:56:33.355Z,84.65
2017-11-14T17:59:00.807Z,76.80
2017-11-14T18:01:28.269Z,90.10
2017-11-14T18:03:55.688Z,74.20
2017-11-14T18:06:23.127Z,75.57
2017-11-14T18:08:52.691Z,86.72
2017-11-14T18:11:20.126Z,92.82
2017-11-14T18:13:47.686Z,86.78
2017-11-14T18:16:15.134Z,80.30
2017-11-14T18:18:42.566Z,78.37
2017-11-14T18:21:11.382Z,77.05
2017-11-14T18:23:39.113Z,79.85
2017-11-14T18:26:06.542Z,84.40
2017-11-14T18:28:34.031Z,85.20
2017-11-14T18:31:01.467Z,110.65
2017-11-14T18:33:28.892Z,99.75
2017-11-14T18:35:56.356Z,96.40
2017-11-14T18:38:23.810Z,105.70
2017-11-14T18:40:51.257Z,107.85
2017-11-14T18:43:21.366Z,122.25
2017-11-14T18:45:49.230Z,107.60
2017-11-14T18:48:16.675Z,103.30
2017-11-14T18:50:44.189Z,101.32
2017-11-14T18:53:11.641Z,118.28
2017-11-14T18:55:39.090Z,114.88
2017-11-14T18:58:08.055Z,133.18
2017-11-14T19:00:35.502Z,148.55
2017-11-14T19:03:02.927Z,138.10
2017-11-14T19:05:30.381Z,143.13
2017-11-14T19:07:57.903Z,129.85
2017-11-14T19:10:26.223Z,103.57
2017-11-14T19:12:53.695Z,109.25
2017-11-14T19:15:21.250Z,108.57
2017-11-14T19:17:54.927Z,88.20
2017-11-14T19:20:22.375Z,98.82
2017-11-14T19:22:49.799Z,91.05
2017-11-14T19:25:22.222Z,106.57
2017-11-14T19:27:50.933Z,95.22
2017-11-14T19:30:18.965Z,79.95
2017-11-14T19:32:47.048Z,106.95
2017-11-14T19:35:15.012Z,79.43
2017-11-14T19:37:45.517Z,83.70
2017-11-14T19:40:13.752Z,101.93
2017-11-14T19:42:42.094Z,77.32
2017-11-14T19:45:10.614Z,85.87
2017-11-14T19:47:38.958Z,109.47
2017-11-14T19:50:07.465Z,100.53
2017-11-14T19:52:35.936Z,96.50
2017-11-14T19:55:04.841Z,97.65
2017-11-14T19:57:33.318Z,93.80
2017-11-14T20:00:02.174Z,108.68
2017-11-14T20:02:31.445Z,104.85
2017-11-14T20:04:59.857Z,100.80
2017-11-14T20:07:28.359Z,92.35
2017-11-14T20:09:56.755Z,97.95
2017-11-14T20:12:31.539Z,133.77
2017-11-14T20:15:00.827Z,103.22
2017-11-14T20:17:29.412Z,116.62
2017-11-14T20:19:57.890Z,120.28
2017-11-14T20:22:26.276Z,98.12
2017-11-14T20:24:54.874Z,103.07
2017-11-14T20:27:23.253Z,95.00
2017-11-14T20:29:51.716Z,107.37
2017-11-14T20:32:20.256Z,111.82
2017-11-14T20:34:56.317Z,94.55
2017-11-14T20:37:28.258Z,98.07
2017-11-14T20:39:56.967Z,94.18
2017-11-14T20:42:33.468Z,108.45
2017-11-14T20:45:02.421Z,99.03
2017-11-14T20:47:36.739Z,97.20
2017-11-14T20:50:05.671Z,104.72
2017-11-14T20:52:34.870Z,104.87
2017-11-14T20:55:03.643Z,92.43
2017-11-14T20:57:32.215Z,85.80
2017-11-14T21:00:00.880Z,105.05
2017-11-14T21:02:29.587Z,95.85
2017-11-14T21:04:59.266Z,95.55
2017-11-14T21:07:28.045Z,114.55
2017-11-14T21:12:37.138Z,110.97
2017-11-14T21:15:05.854Z,111.03
2017-11-14T21:17:34.227Z,104.03
2017-11-14T21:20:02.857Z,105.37
2017-11-14T21:22:31.177Z,101.87
2017-11-14T21:24:59.923Z,103.85
2017-11-14T21:27:28.503Z,86.00
2017-11-14T21:29:56.841Z,104.53
2017-11-14T21:32:25.350Z,105.00
2017-11-14T21:34:53.010Z,104.57
2017-11-14T21:37:21.993Z,100.28
2017-11-14T21:39:49.502Z,102.80
2017-11-14T21:42:16.938Z,109.97
2017-11-14T21:44:44.394Z,109.35
2017-11-14T21:47:11.855Z,96.80
2017-11-14T21:49:39.294Z,125.10
2017-11-14T21:52:06.736Z,86.07
2017-11-14T21:54:34.194Z,101.60
2017-11-14T21:57:01.627Z,101.95
2017-11-14T21:59:29.049Z,94.80
2017-11-14T22:01:56.499Z,102.40
2017-11-14T22:04:23.941Z,102.62
2017-11-14T22:06:51.371Z,89.90
2017-11-14T22:09:18.806Z,96.00
2017-11-14T22:11:46.229Z,113.47
2017-11-14T22:14:13.654Z,104.82
2017-11-14T22:16:41.093Z,98.87
2017-11-14T22:19:08.527Z,106.72
2017-11-14T22:21:35.975Z,118.28
2017-11-14T22:24:03.417Z,104.22
2017-11-14T22:26:30.836Z,100.85
2017-11-14T22:28:58.294Z,88.40
2017-11-14T22:31:25.722Z,101.78
2017-11-14T22:33:53.161Z,110.37
2017-11-14T22:36:20.605Z,119.93
2017-11-14T22:38:48.041Z,99.07
2017-11-14T22:41:15.464Z,118.25
2017-11-14T22:43:42.914Z,138.32
2017-11-14T22:46:10.341Z,101.70
2017-11-14T22:48:37.774Z,120.93
2017-11-14T22:51:05.225Z,103.10
2017-11-14T22:53:32.650Z,102.07
2017-11-14T22:56:00.077Z,121.03
2017-11-14T22:58:27.534Z,117.22
2017-11-14T23:00:54.970Z,118.07
2017-11-14T23:03:22.397Z,117.15
2017-11-14T23:05:49.846Z,111.80
2017-11-14T23:08:17.269Z,120.90
2017-11-14T23:10:44.699Z,113.88
2017-11-14T23:13:12.141Z,115.18
2017-11-14T23:15:39.572Z,108.35
2017-11-14T23:18:07.007Z,112.65
2017-11-14T23:20:34.453Z,113.20
2017-11-14T23:23:01.882Z,102.80
2017-11-14T23:25:29.310Z,108.82
2017-11-14T23:27:56.910Z,101.03
2017-11-14T23:30:24.389Z,97.82
2017-11-14T23:32:51.814Z,103.47
2017-11-14T23:35:19.261Z,99.57
2017-11-14T23:37:46.693Z,114.75
2017-11-14T23:40:14.261Z,99.85
2017-11-14T23:42:41.716Z,112.80
2017-11-14T23:45:09.163Z,121.87
2017-11-14T23:47:36.591Z,109.50
2017-11-14T23:50:04.034Z,127.12
2017-11-14T23:52:31.481Z,138.27
2017-11-14T23:54:58.914Z,118.60
2017-11-14T23:57:26.346Z,134.32
2017-11-14T23:59:53.794Z,130.15
